createdAt,value
2024-03-13T00:01:52.962Z,2.33
2024-03-13T00:04:21.256Z,2.47
2024-03-13T00:06:48.627Z,3.50
2024-03-13T00:09:18.747Z,2.40
2024-03-13T00:11:45.980Z,2.42
2024-03-13T00:14:13.342Z,2.33
2024-03-13T00:16:40.580Z,2.58
2024-03-13T00:19:10.390Z,2.40
2024-03-13T00:24:08.117Z,2.20
2024-03-13T00:26:35.375Z,2.10
2024-03-13T00:29:05.393Z,2.25
2024-03-13T00:31:32.792Z,1.88
2024-03-13T00:34:01.934Z,2.22
2024-03-13T00:36:29.374Z,2.72
2024-03-13T00:38:59.715Z,2.58
2024-03-13T00:41:27.148Z,2.45
2024-03-13T00:43:54.858Z,2.90
2024-03-13T00:46:30.582Z,2.42
2024-03-13T00:48:58.414Z,2.30
2024-03-13T00:51:26.057Z,2.10
2024-03-13T00:53:53.507Z,2.33
2024-03-13T00:56:22.394Z,2.50
2024-03-13T00:58:50.138Z,2.55
2024-03-13T01:01:23.605Z,2.33
2024-03-13T01:03:51.216Z,2.17
2024-03-13T01:06:18.852Z,2.38
2024-03-13T01:08:46.081Z,2.20
2024-03-13T01:11:13.331Z,1.80
2024-03-13T01:13:40.729Z,2.03
2024-03-13T01:16:12.150Z,1.80
2024-03-13T01:18:39.429Z,1.70
2024-03-13T01:21:06.745Z,2.42
2024-03-13T01:23:34.078Z,2.17
2024-03-13T01:26:05.917Z,2.63
2024-03-13T01:28:33.168Z,1.98
2024-03-13T01:31:00.651Z,2.47
2024-03-13T01:33:29.770Z,2.40
2024-03-13T01:35:56.996Z,2.55
2024-03-13T01:38:24.328Z,2.00
2024-03-13T01:41:10.300Z,2.03
2024-03-13T01:43:56.217Z,2.08
2024-03-13T01:46:42.064Z,2.13
2024-03-13T01:49:36.741Z,1.88
2024-03-13T01:52:26.089Z,2.10
2024-03-13T01:55:05.459Z,1.98
2024-03-13T01:57:47.050Z,2.42
2024-03-13T02:00:34.165Z,1.73
2024-03-13T02:03:01.438Z,1.80
2024-03-13T02:05:28.845Z,2.13
2024-03-13T02:07:56.227Z,2.17
2024-03-13T02:10:23.513Z,2.53
2024-03-13T02:13:04.471Z,1.65
2024-03-13T02:15:32.234Z,2.05
2024-03-13T02:18:04.140Z,1.80
2024-03-13T02:20:34.361Z,2.13
2024-03-13T02:23:05.755Z,1.80
2024-03-13T02:25:33.228Z,1.95
2024-03-13T02:28:01.484Z,2.03
2024-03-13T02:30:28.892Z,2.05
2024-03-13T02:32:56.582Z,2.00
2024-03-13T02:35:23.881Z,1.65
2024-03-13T02:37:51.128Z,1.90
2024-03-13T02:40:18.449Z,2.03
2024-03-13T02:42:46.182Z,1.80
2024-03-13T02:45:15.575Z,1.77
2024-03-13T02:47:43.070Z,1.63
2024-03-13T02:50:12.961Z,1.77
2024-03-13T02:52:40.767Z,1.80
2024-03-13T02:55:08.682Z,1.75
2024-03-13T02:57:36.045Z,1.50
2024-03-13T03:00:07.429Z,1.90
2024-03-13T03:02:36.217Z,1.40
2024-03-13T03:05:06.784Z,1.70
2024-03-13T03:07:34.974Z,1.50
2024-03-13T03:10:02.352Z,1.75
2024-03-13T03:12:29.690Z,1.05
2024-03-13T03:14:56.944Z,1.55
2024-03-13T03:17:24.234Z,1.48
2024-03-13T03:19:52.097Z,1.40
2024-03-13T03:22:20.003Z,1.15
2024-03-13T03:24:48.390Z,1.20
2024-03-13T03:27:15.732Z,1.05
2024-03-13T03:29:43.060Z,1.40
2024-03-13T03:32:10.444Z,1.10
2024-03-13T03:34:37.876Z,1.20
2024-03-13T03:37:05.251Z,1.13
2024-03-13T03:39:39.361Z,1.30
2024-03-13T03:42:07.788Z,1.38
2024-03-13T03:44:35.085Z,1.13
2024-03-13T03:47:02.385Z,1.40
2024-03-13T03:49:29.650Z,1.20
2024-03-13T03:51:57.035Z,1.00
2024-03-13T03:54:24.581Z,1.17
2024-03-13T03:56:52.972Z,1.40
2024-03-13T03:59:20.243Z,1.48
2024-03-13T04:01:47.631Z,1.27
2024-03-13T04:04:15.108Z,1.40
2024-03-13T04:06:42.732Z,1.70
2024-03-13T04:09:16.157Z,1.60
2024-03-13T04:11:44.125Z,1.17
2024-03-13T04:14:15.040Z,1.30
2024-03-13T04:16:44.630Z,1.75
2024-03-13T04:19:15.489Z,1.35
2024-03-13T04:21:44.076Z,1.30
2024-03-13T04:24:11.514Z,1.63
2024-03-13T04:26:42.469Z,1.30
2024-03-13T04:29:12.150Z,1.40
2024-03-13T04:31:41.591Z,1.42
2024-03-13T04:34:11.360Z,1.40
2024-03-13T04:36:42.309Z,1.23
2024-03-13T04:39:09.677Z,1.20
2024-03-13T04:41:40.843Z,1.05
2024-03-13T04:44:11.632Z,1.20
2024-03-13T04:46:44.487Z,0.70
2024-03-13T04:49:12.516Z,0.52
2024-03-13T04:51:40.022Z,0.60
2024-03-13T04:54:10.224Z,0.40
2024-03-13T04:56:38.481Z,0.43
2024-03-13T04:59:05.896Z,0.40
2024-03-13T05:01:33.244Z,0.43
2024-03-13T05:04:00.713Z,0.50
2024-03-13T05:06:27.953Z,0.60
2024-03-13T05:08:56.034Z,0.70
2024-03-13T05:11:23.522Z,0.57
2024-03-13T05:13:50.825Z,0.40
2024-03-13T05:16:20.055Z,0.55
2024-03-13T05:18:49.551Z,0.50
2024-03-13T05:21:19.599Z,0.32
2024-03-13T05:23:47.129Z,0.22
2024-03-13T05:26:14.368Z,0.50
2024-03-13T05:28:41.654Z,0.30
2024-03-13T05:31:11.266Z,0.52
2024-03-13T05:33:41.498Z,0.40
2024-03-13T05:36:12.357Z,0.45
2024-03-13T05:38:40.051Z,0.32
2024-03-13T05:41:07.461Z,0.63
2024-03-13T05:43:34.735Z,0.90
2024-03-13T05:46:02.722Z,0.90
2024-03-13T05:48:32.005Z,1.33
2024-03-13T05:50:59.264Z,0.90
2024-03-13T05:53:26.485Z,0.75
2024-03-13T05:55:53.756Z,0.85
2024-03-13T05:58:21.685Z,0.60
2024-03-13T06:00:49.705Z,0.70
2024-03-13T06:03:17.015Z,0.60
2024-03-13T06:05:44.336Z,0.70
2024-03-13T06:08:13.871Z,0.80
2024-03-13T06:10:41.264Z,0.73
2024-03-13T06:13:08.719Z,0.80
2024-03-13T06:15:36.316Z,0.77
2024-03-13T06:18:03.768Z,0.90
2024-03-13T06:20:32.003Z,0.90
2024-03-13T06:23:00.080Z,0.82
2024-03-13T06:25:29.341Z,0.73
2024-03-13T06:28:16.749Z,1.35
2024-03-13T06:30:44.067Z,1.10
2024-03-13T06:33:12.487Z,0.80
2024-03-13T06:35:40.744Z,0.95
2024-03-13T06:38:08.111Z,1.17
2024-03-13T06:40:35.581Z,1.00
2024-03-13T06:43:03.153Z,1.05
2024-03-13T06:45:38.542Z,0.80
2024-03-13T06:48:07.474Z,0.98
2024-03-13T06:50:36.176Z,1.10
2024-03-13T06:53:04.191Z,1.10
2024-03-13T06:55:31.883Z,1.10
2024-03-13T06:57:59.379Z,1.25
2024-03-13T07:00:29.474Z,1.42
2024-03-13T07:02:58.013Z,1.00
2024-03-13T07:05:25.246Z,0.90
2024-03-13T07:07:59.802Z,0.63
2024-03-13T07:10:27.102Z,0.90
2024-03-13T07:12:56.913Z,0.80
2024-03-13T07:15:24.171Z,0.70
2024-03-13T07:17:51.597Z,0.50
2024-03-13T07:20:18.892Z,0.57
2024-03-13T07:22:46.121Z,0.90
2024-03-13T07:25:13.679Z,0.70
2024-03-13T07:27:41.299Z,0.75
2024-03-13T07:30:09.196Z,0.52
2024-03-13T07:32:36.948Z,0.40
2024-03-13T07:35:05.478Z,0.70
2024-03-13T07:37:33.228Z,0.60
2024-03-13T07:40:01.153Z,0.70
2024-03-13T07:42:28.490Z,0.90
2024-03-13T07:44:56.108Z,0.68
2024-03-13T07:47:23.576Z,0.65
2024-03-13T07:49:51.070Z,0.70
2024-03-13T07:52:18.596Z,0.60
2024-03-13T07:54:46.045Z,0.60
2024-03-13T07:57:13.525Z,0.75
2024-03-13T07:59:42.054Z,0.60
2024-03-13T08:02:09.932Z,0.90
2024-03-13T08:04:37.666Z,0.52
2024-03-13T09:07:42.918Z,0.52
2024-03-13T09:10:13.610Z,0.30
2024-03-13T09:12:41.163Z,0.50
2024-03-13T09:15:09.004Z,0.30
2024-03-13T09:17:36.862Z,0.60
2024-03-13T09:20:04.884Z,0.30
2024-03-13T09:22:32.174Z,0.20
2024-03-13T09:24:59.634Z,0.30
2024-03-13T09:27:26.980Z,0.40
2024-03-13T09:29:54.244Z,0.20
2024-03-13T09:32:22.651Z,0.35
2024-03-13T09:34:51.890Z,0.30
2024-03-13T09:37:20.413Z,0.30
2024-03-13T09:39:47.747Z,0.32
2024-03-13T09:42:18.570Z,0.30
2024-03-13T09:44:47.366Z,0.52
2024-03-13T09:47:15.629Z,0.52
2024-03-13T09:49:46.574Z,0.38
2024-03-13T09:52:14.045Z,0.20
2024-03-13T09:54:42.328Z,0.20
2024-03-13T09:57:14.014Z,0.15
2024-03-13T09:59:42.574Z,0.10
2024-03-13T10:02:17.370Z,0.20
2024-03-13T10:04:46.454Z,0.28
2024-03-13T10:07:23.031Z,0.73
2024-03-13T10:09:50.484Z,0.30
2024-03-13T10:12:21.813Z,0.20
2024-03-13T10:14:54.238Z,0.40
2024-03-13T10:17:28.474Z,0.40
2024-03-13T10:19:56.868Z,0.50
2024-03-13T10:22:27.013Z,0.20
2024-03-13T10:24:56.268Z,0.70
2024-03-13T10:27:24.755Z,0.55
2024-03-13T10:29:54.633Z,1.05
2024-03-13T10:32:23.997Z,0.80
2024-03-13T10:34:51.946Z,0.17
2024-03-13T10:37:20.757Z,10.52
2024-03-13T10:39:48.129Z,2.05
2024-03-13T10:42:15.458Z,9.63
2024-03-13T10:44:43.318Z,11.90
2024-03-13T10:47:10.917Z,13.10
2024-03-13T10:49:38.377Z,5.03
2024-03-13T10:52:11.016Z,2.80
2024-03-13T10:54:38.328Z,3.63
2024-03-13T10:57:06.314Z,2.58
2024-03-13T10:59:34.581Z,1.77
2024-03-13T11:02:04.539Z,14.65
2024-03-13T11:04:34.838Z,3.33
2024-03-13T11:07:02.062Z,2.72
2024-03-13T11:09:29.388Z,3.72
2024-03-13T11:12:00.496Z,1.30
2024-03-13T11:14:28.971Z,6.95
2024-03-13T11:17:04.097Z,0.60
2024-03-13T11:19:34.386Z,3.92
2024-03-13T11:22:04.872Z,11.32
2024-03-13T11:24:33.587Z,17.50
2024-03-13T11:27:08.806Z,29.38
2024-03-13T11:29:44.523Z,21.75
2024-03-13T11:32:14.371Z,11.07
2024-03-13T11:34:44.726Z,7.00
2024-03-13T11:37:13.220Z,7.10
2024-03-13T11:39:41.743Z,8.40
2024-03-13T11:42:15.661Z,4.70
2024-03-13T11:44:45.462Z,0.45
2024-03-13T11:47:13.347Z,3.30
2024-03-13T11:49:42.403Z,3.42
2024-03-13T11:52:16.499Z,33.22
2024-03-13T11:54:47.503Z,10.80
2024-03-13T11:57:16.262Z,3.53
2024-03-13T11:59:51.507Z,1.98
2024-03-13T12:02:34.760Z,8.05
2024-03-13T12:05:06.256Z,7.05
2024-03-13T12:07:37.651Z,5.63
2024-03-13T12:10:05.419Z,9.27
2024-03-13T12:12:33.499Z,1.52
2024-03-13T12:15:01.338Z,0.30
2024-03-13T12:17:28.716Z,0.20
2024-03-13T12:19:57.377Z,0.30
2024-03-13T12:22:25.634Z,0.25
2024-03-13T12:24:55.915Z,0.40
2024-03-13T12:27:26.108Z,0.40
2024-03-13T12:29:55.709Z,0.25
2024-03-13T12:32:25.976Z,0.20
2024-03-13T12:34:53.444Z,0.20
2024-03-13T12:37:20.646Z,0.30
2024-03-13T12:39:48.540Z,0.35
2024-03-13T12:42:15.823Z,0.30
2024-03-13T12:44:44.509Z,0.30
2024-03-13T12:47:13.712Z,0.60
2024-03-13T12:49:42.248Z,0.30
2024-03-13T12:52:14.032Z,0.30
2024-03-13T12:54:41.655Z,0.70
2024-03-13T12:57:12.400Z,0.40
2024-03-13T12:59:54.961Z,0.50
2024-03-13T13:02:23.525Z,0.22
2024-03-13T13:04:50.861Z,0.30
2024-03-13T13:07:20.491Z,0.20
2024-03-13T13:09:51.375Z,0.22
2024-03-13T13:12:21.863Z,0.40
2024-03-13T13:14:49.227Z,0.40
2024-03-13T13:17:16.580Z,0.47
2024-03-13T13:19:43.848Z,0.20
2024-03-13T13:22:13.206Z,0.20
2024-03-13T13:24:40.455Z,0.20
2024-03-13T13:27:09.357Z,0.30
2024-03-13T13:29:38.133Z,0.30
2024-03-13T13:32:07.101Z,0.50
2024-03-13T13:34:34.673Z,0.60
2024-03-13T13:37:01.957Z,0.52
2024-03-13T13:39:29.241Z,0.35
2024-03-13T13:41:56.961Z,0.60
2024-03-13T13:44:24.372Z,0.52
2024-03-13T13:46:51.899Z,0.30
2024-03-13T13:49:19.164Z,0.30
2024-03-13T13:51:46.457Z,0.20
2024-03-13T13:54:13.787Z,0.50
2024-03-13T13:56:41.165Z,0.10
2024-03-13T13:59:09.054Z,0.13
2024-03-13T14:01:37.003Z,0.25
2024-03-13T14:04:07.458Z,0.10
2024-03-13T14:06:36.668Z,0.10
2024-03-13T14:09:04.509Z,0.22
2024-03-13T14:11:32.205Z,0.20
2024-03-13T14:14:01.488Z,0.20
2024-03-13T14:16:29.510Z,0.20
2024-03-13T14:18:57.851Z,0.10
2024-03-13T14:21:25.281Z,0.20
2024-03-13T14:23:52.749Z,0.10
2024-03-13T14:26:21.102Z,0.55
2024-03-13T14:28:48.986Z,0.20
2024-03-13T14:31:17.164Z,0.40
2024-03-13T14:33:44.767Z,0.20
2024-03-13T14:36:13.132Z,0.30
2024-03-13T14:38:43.609Z,0.22
2024-03-13T14:41:13.889Z,0.30
2024-03-13T14:43:43.983Z,0.20
2024-03-13T14:46:11.257Z,1.83
2024-03-13T14:48:38.646Z,0.50
2024-03-13T14:51:06.453Z,0.40
2024-03-13T14:53:33.771Z,0.40
2024-03-13T14:56:01.130Z,0.30
2024-03-13T14:58:37.130Z,0.20
2024-03-13T15:01:05.062Z,0.30
2024-03-13T15:03:34.928Z,0.30
2024-03-13T15:06:02.307Z,0.35
2024-03-13T15:08:29.622Z,0.40
2024-03-13T15:10:56.967Z,0.50
2024-03-13T15:13:24.280Z,0.40
2024-03-13T15:15:54.406Z,0.40
2024-03-13T15:18:24.963Z,0.47
2024-03-13T15:20:53.201Z,0.40
2024-03-13T15:23:20.717Z,0.32
2024-03-13T15:25:49.865Z,0.40
2024-03-13T15:28:18.041Z,0.38
2024-03-13T15:30:46.074Z,0.50
2024-03-13T15:33:17.133Z,0.45
2024-03-13T15:35:45.307Z,0.50
2024-03-13T15:38:12.696Z,0.77
2024-03-13T15:40:40.089Z,0.70
2024-03-13T15:43:09.163Z,0.47
2024-03-13T15:45:36.560Z,0.45
2024-03-13T15:48:05.514Z,0.40
2024-03-13T15:50:36.282Z,0.50
2024-03-13T15:53:05.365Z,0.50
2024-03-13T15:55:32.684Z,0.43
2024-03-13T15:58:00.277Z,0.50
2024-03-13T16:00:28.200Z,0.50
2024-03-13T16:03:00.186Z,0.50
2024-03-13T16:05:28.228Z,0.57
2024-03-13T16:08:16.643Z,0.55
2024-03-13T16:10:45.930Z,0.40
2024-03-13T16:13:13.319Z,0.75
2024-03-13T16:15:41.283Z,0.63
2024-03-13T16:18:11.753Z,0.50
2024-03-13T16:20:39.648Z,0.65
2024-03-13T16:23:08.529Z,0.65
2024-03-13T16:25:36.111Z,0.63
2024-03-13T16:28:03.797Z,0.60
2024-03-13T16:30:31.088Z,0.75
2024-03-13T16:32:58.452Z,0.60
2024-03-13T16:35:25.922Z,0.60
2024-03-13T16:37:53.285Z,0.70
2024-03-13T16:40:20.520Z,1.30
2024-03-13T16:42:48.821Z,0.85
2024-03-13T16:45:19.070Z,1.40
2024-03-13T16:47:46.836Z,1.10
2024-03-13T16:50:18.015Z,1.00
2024-03-13T16:52:45.578Z,0.93
2024-03-13T16:55:13.030Z,0.77
2024-03-13T16:57:41.487Z,0.93
2024-03-13T17:00:16.180Z,0.60
2024-03-13T17:02:45.443Z,0.80
2024-03-13T17:05:15.546Z,0.73
2024-03-13T17:07:43.472Z,0.70
2024-03-13T17:10:11.102Z,0.90
2024-03-13T17:12:39.664Z,1.00
2024-03-13T17:15:07.840Z,0.82
2024-03-13T17:17:35.709Z,0.60
2024-03-13T17:20:07.854Z,0.50
2024-03-13T17:22:35.681Z,0.85
2024-03-13T17:25:05.113Z,1.00
2024-03-13T17:27:33.325Z,1.00
2024-03-13T17:30:01.038Z,1.25
2024-03-13T17:32:28.408Z,1.10
2024-03-13T17:34:58.149Z,0.80
2024-03-13T17:37:28.721Z,0.90
2024-03-13T17:39:57.458Z,0.90
2024-03-13T17:42:24.983Z,1.15
2024-03-13T17:44:52.308Z,0.88
2024-03-13T17:47:19.720Z,0.82
2024-03-13T17:49:49.088Z,0.90
2024-03-13T17:52:16.404Z,0.95
2024-03-13T17:54:43.769Z,1.30
2024-03-13T17:57:11.151Z,1.05
2024-03-13T17:59:42.342Z,0.93
2024-03-13T18:02:12.976Z,0.80
2024-03-13T18:04:41.086Z,1.00
2024-03-13T18:07:12.061Z,1.05
2024-03-13T18:09:41.546Z,0.80
2024-03-13T18:12:10.392Z,1.00
2024-03-13T18:14:38.040Z,0.93
2024-03-13T18:17:05.893Z,1.02
2024-03-13T18:19:33.415Z,1.58
2024-03-13T18:22:00.741Z,1.15
2024-03-13T18:24:28.108Z,1.10
2024-03-13T18:26:55.441Z,1.13
2024-03-13T18:29:22.736Z,1.08
2024-03-13T18:31:51.798Z,1.55
2024-03-13T18:34:19.600Z,1.40
2024-03-13T18:36:49.005Z,1.33
2024-03-13T18:39:18.968Z,1.48
2024-03-13T18:41:46.653Z,1.40
2024-03-13T18:44:13.964Z,1.20
2024-03-13T18:46:41.248Z,1.58
2024-03-13T18:49:11.718Z,1.50
2024-03-13T18:51:39.418Z,1.30
2024-03-13T18:54:06.878Z,1.60
2024-03-13T18:56:36.450Z,1.73
2024-03-13T18:59:05.528Z,1.67
2024-03-13T19:01:33.591Z,1.40
2024-03-13T19:04:00.985Z,1.77
2024-03-13T19:06:28.360Z,1.35
2024-03-13T19:08:55.757Z,2.00
2024-03-13T19:11:23.066Z,1.65
2024-03-13T19:13:50.350Z,2.00
2024-03-13T19:16:18.351Z,1.85
2024-03-13T19:18:46.448Z,1.65
2024-03-13T19:21:13.935Z,1.45
2024-03-13T19:23:42.595Z,1.67
2024-03-13T19:26:09.936Z,1.83
2024-03-13T19:28:38.961Z,1.52
2024-03-13T19:31:10.219Z,1.42
2024-03-13T19:33:39.054Z,2.15
2024-03-13T19:36:07.152Z,1.92
2024-03-13T19:38:34.518Z,1.35
2024-03-13T19:41:01.804Z,1.85
2024-03-13T19:43:29.786Z,1.80
2024-03-13T19:45:59.859Z,2.25
2024-03-13T19:48:27.450Z,3.03
2024-03-13T19:50:54.938Z,1.67
2024-03-13T19:53:22.366Z,1.30
2024-03-13T19:55:49.608Z,1.58
2024-03-13T19:58:17.004Z,1.27
2024-03-13T20:00:44.963Z,1.50
2024-03-13T20:03:13.194Z,1.35
2024-03-13T20:05:40.696Z,1.30
2024-03-13T20:08:08.128Z,1.40
2024-03-13T20:10:35.405Z,1.45
2024-03-13T20:13:04.300Z,1.52
2024-03-13T20:15:31.695Z,1.50
2024-03-13T20:17:58.986Z,1.10
2024-03-13T20:20:28.068Z,1.00
2024-03-13T20:22:56.106Z,1.10
2024-03-13T20:25:23.492Z,1.20
2024-03-13T20:27:51.020Z,1.17
2024-03-13T20:30:18.595Z,1.25
2024-03-13T20:32:46.395Z,1.10
2024-03-13T20:35:13.998Z,1.08
2024-03-13T20:37:41.499Z,1.08
2024-03-13T20:40:13.790Z,0.90
2024-03-13T20:42:44.767Z,1.10
2024-03-13T20:45:12.352Z,1.30
2024-03-13T20:47:39.933Z,1.88
2024-03-13T20:50:10.461Z,1.73
2024-03-13T20:52:38.944Z,1.05
2024-03-13T20:55:10.501Z,1.00
2024-03-13T20:57:39.150Z,0.75
2024-03-13T21:00:14.803Z,1.08
2024-03-13T21:02:44.495Z,0.88
2024-03-13T21:05:12.809Z,0.90
2024-03-13T21:07:40.414Z,0.80
2024-03-13T21:10:10.233Z,0.80
2024-03-13T21:12:40.496Z,1.10
2024-03-13T21:15:11.506Z,0.60
2024-03-13T21:17:38.939Z,0.60
2024-03-13T21:20:11.196Z,0.65
2024-03-13T21:22:41.938Z,0.70
2024-03-13T21:25:09.356Z,0.70
2024-03-13T21:27:40.011Z,0.70
2024-03-13T21:30:11.035Z,0.50
2024-03-13T21:32:38.690Z,2.33
2024-03-13T21:35:07.598Z,0.50
2024-03-13T21:37:35.265Z,0.52
2024-03-13T21:40:07.357Z,0.60
2024-03-13T21:42:34.806Z,0.90
2024-03-13T21:45:02.294Z,1.10
2024-03-13T21:47:29.588Z,0.70
2024-03-13T21:49:57.564Z,1.17
2024-03-13T21:52:27.700Z,0.85
2024-03-13T21:54:57.960Z,0.60
2024-03-13T21:57:25.229Z,0.60
2024-03-13T21:59:52.535Z,0.50
2024-03-13T22:02:20.286Z,0.70
2024-03-13T22:04:50.420Z,0.80
2024-03-13T22:07:18.689Z,0.47
2024-03-13T22:09:45.918Z,0.55
2024-03-13T22:12:14.831Z,0.50
2024-03-13T22:14:45.214Z,0.45
2024-03-13T22:17:12.515Z,0.55
2024-03-13T22:19:43.564Z,0.65
2024-03-13T22:22:12.269Z,0.90
2024-03-13T22:24:39.568Z,0.70
2024-03-13T22:27:07.317Z,0.73
2024-03-13T22:29:34.734Z,0.60
2024-03-13T22:32:02.014Z,0.52
2024-03-13T22:34:29.246Z,0.70
2024-03-13T22:36:56.658Z,0.75
2024-03-13T22:39:23.999Z,0.68
2024-03-13T22:41:51.461Z,0.80
2024-03-13T22:44:18.812Z,0.90
2024-03-13T22:46:46.015Z,0.60
2024-03-13T22:49:13.306Z,0.70
2024-03-13T22:51:40.555Z,1.00
2024-03-13T22:54:11.183Z,0.70
2024-03-13T22:56:38.612Z,0.70
2024-03-13T22:59:06.502Z,0.70
2024-03-13T23:01:33.974Z,0.65
2024-03-13T23:04:01.164Z,0.90
2024-03-13T23:06:28.634Z,0.80
2024-03-13T23:08:58.187Z,0.70
2024-03-13T23:11:25.676Z,2.42
2024-03-13T23:13:55.090Z,1.23
2024-03-13T23:16:22.554Z,1.13
2024-03-13T23:18:50.702Z,1.20
2024-03-13T23:21:21.737Z,1.10
2024-03-13T23:23:52.998Z,1.00
2024-03-13T23:26:20.757Z,1.13
2024-03-13T23:28:48.069Z,1.27
2024-03-13T23:31:16.382Z,0.80
2024-03-13T23:33:45.599Z,1.15
2024-03-13T23:36:13.828Z,1.05
2024-03-13T23:38:41.665Z,0.80
2024-03-13T23:41:17.168Z,1.20
2024-03-13T23:43:44.920Z,1.20
2024-03-13T23:46:16.111Z,1.08
2024-03-13T23:48:44.308Z,1.00
2024-03-13T23:51:15.392Z,0.93
2024-03-13T23:53:42.938Z,1.02
2024-03-13T23:56:11.256Z,1.10
2024-03-13T23:58:38.487Z,0.82
